Doris — 9HA2632 — position and weather

sailwx.info

Track history (hours):
 
Tides and Currents Weather Stations Pressure Air Temp Water Temp Dewpoint Dewpoint Depression Visibility Wind Speed Wind Dir Waves Ship Positions

Doris

Last reported at 2014-Aug-25 16:33 UTC. Time now 2014-Sep-01 11:26 UTC.
Position N 40°01' W 027°48'.

Length 182 m; draft 10 m.

Type: Cargo ship. MMSI: 215080000.

Date/timePositionNaut miles runAvg speedWind from/ knotsBaromVisibWave heightAir tempDewpointWater temp
2014-Aug-25 16:33N 40°01' W 027°48'1211.8
2014-Aug-25 15:32N 39°56' W 028°03'1212.0
2014-Aug-25 14:33N 39°52' W 028°17'1212.1
2014-Aug-25 13:33N 39°47' W 028°32'1212.2
2014-Aug-25 12:33N 39°43' W 028°46'1212.2
2014-Aug-25 11:33N 39°38' W 029°01'1212.0
2014-Aug-25 10:33N 39°34' W 029°15'1212.0
2014-Aug-25 09:33N 39°29' W 029°30'1211.8
2014-Aug-25 08:33N 39°25' W 029°44'1211.9
2014-Aug-25 07:33N 39°21' W 029°58'1211.8
2014-Aug-25 06:33N 39°16' W 030°12'1212.0
2014-Aug-25 05:33N 39°12' W 030°27'1212.1
2014-Aug-25 04:34N 39°07' W 030°41'1211.8
2014-Aug-25 03:33N 39°02' W 030°55'1211.9
2014-Aug-25 02:33N 38°57' W 031°09'1212.3
2014-Aug-25 01:33N 38°52' W 031°23'1412.3
2014-Aug-25 00:26N 38°47' W 031°40'1112.4
2014-Aug-24 23:33N 38°42' W 031°52'  
Track history (hours):
 
Tides and Currents Weather Stations Pressure Air Temp Water Temp Dewpoint Dewpoint Depression Visibility Wind Speed Wind Dir Waves Ship Positions

Doris

Last reported at 2014-Aug-25 16:33 UTC. Time now 2014-Sep-01 11:26 UTC.
Position N 40°01' W 027°48'.

Length 182 m; draft 10 m.

Type: Cargo ship. MMSI: 215080000.

Date/timePositionNaut miles runAvg speedWind from/ knotsBaromVisibWave heightAir tempDewpointWater temp
2014-Aug-25 16:33N 40°01' W 027°48'1211.8
2014-Aug-25 15:32N 39°56' W 028°03'1212.0
2014-Aug-25 14:33N 39°52' W 028°17'1212.1
2014-Aug-25 13:33N 39°47' W 028°32'1212.2
2014-Aug-25 12:33N 39°43' W 028°46'1212.2
2014-Aug-25 11:33N 39°38' W 029°01'1212.0
2014-Aug-25 10:33N 39°34' W 029°15'1212.0
2014-Aug-25 09:33N 39°29' W 029°30'1211.8
2014-Aug-25 08:33N 39°25' W 029°44'1211.9
2014-Aug-25 07:33N 39°21' W 029°58'1211.8
2014-Aug-25 06:33N 39°16' W 030°12'1212.0
2014-Aug-25 05:33N 39°12' W 030°27'1212.1
2014-Aug-25 04:34N 39°07' W 030°41'1211.8
2014-Aug-25 03:33N 39°02' W 030°55'1211.9
2014-Aug-25 02:33N 38°57' W 031°09'1212.3
2014-Aug-25 01:33N 38°52' W 031°23'1412.3
2014-Aug-25 00:26N 38°47' W 031°40'1112.4
2014-Aug-24 23:33N 38°42' W 031°52'  

Dump ship's entire track history